AirNav   Everest Fuels
 
 1425 users online  

3F4 Vivian Airport
Vivian, Louisiana, USA

GOING TO VIVIAN?


FAA INFORMATION EFFECTIVE 01 DECEMBER 2022

Location

FAA Identifier: 3F4
Lat/Long: 32-51-40.8000N 094-00-36.5530W
32-51.680000N 094-00.609217W
32.8613333,-94.0101536
(estimated)
Elevation: 260 ft. / 79.2 m (surveyed)
Variation: 02E (2010)
From city: 2 miles SW of VIVIAN, LA
Time zone: UTC -6 (UTC -5 during Daylight Saving Time)
Zip code: 71082

Airport Operations

Airport use: Open to the public
Activation date: 02/1960
Control tower: no
ARTCC: FORT WORTH CENTER
FSS: DE RIDDER FLIGHT SERVICE STATION
NOTAMs facility: DRI (NOTAM-D service available)
Attendance: MON-SAT DAWN-DUSK
Wind indicator: lighted
Segmented circle: no
Lights: MIRL RY 09/27 AND REIL RY 09 PRESET LOW INTST DUSK-DAWN; TO INCR INTST ACTVT - CTAF.
Beacon: white-green (lighted land airport)
Operates sunset to sunrise.

Airport Communications

CTAF/UNICOM: 122.8
SHREVEPORT APPROACH: 119.9
SHREVEPORT DEPARTURE: 119.9
WX AWOS-3 at ATA (17 nm NW): 118.250 (903-799-4066)

Nearby radio navigation aids

VOR radial/distance  VOR name  Freq  Var
EICr291/11.4BELCHER VORTAC117.4007E
EMGr316/34.7ELM GROVE VORTAC111.2007E
TXKr168/39.3TEXARKANA VORTAC116.3007E

 
NDB name  Hdg/Dist  Freq  Var  ID
ATLANTA144/17.234704EATA .- - .-

Airport Services

Fuel available: 100LL
100LL:FUEL AVBL 24 HRS SELF SVC WITH CREDIT CARD.
Parking: hangars and tiedowns
Airframe service: MAJOR
Powerplant service: MAJOR
Bottled oxygen: NONE
Bulk oxygen: NONE

Runway Information

Runway 9/27

Dimensions: 2998 x 75 ft. / 914 x 23 m
Surface: asphalt, in good condition
Weight bearing capacity: 
Single wheel: 12.0
Runway edge lights: medium intensity
RUNWAY 9  RUNWAY 27
Latitude: 32-51.678283N32-51.681517N
Longitude: 094-00.902067W094-00.316267W
Elevation: 247.0 ft.259.0 ft.
Traffic pattern: leftleft
Runway heading: 088 magnetic, 090 true268 magnetic, 270 true
Markings: nonprecision, in good conditionnonprecision, in good condition
Visual slope indicator: 2-light PAPI on left (3.00 degrees glide path)
RWY 09 PAPI OUT OF SERVICE
Runway end identifier lights: yesyes
Touchdown point: yes, no lightsyes, no lights
Obstructions: 27 ft. trees, 720 ft. from runway, 62 ft. left of centerline, 19:1 slope to clear106 ft. trees, 2392 ft. from runway, 208 ft. right of centerline, 20:1 slope to clear

Airport Ownership and Management from official FAA records

Ownership: Publicly-owned
Owner: TOWN OF VIVIAN
P. O. BOX 832
VIVIAN, LA 71082
Phone 318-375-3856
Manager: MR. MARTY MUSICK
P. O. BOX 648
VIVIAN, LA 71082
Phone (318) 455-5499

Airport Operational Statistics

Aircraft based on the field: 11
Single engine airplanes: 10
Helicopters: 1
    
Aircraft operations: avg 30/day *
73% transient general aviation
27% local general aviation
<1% military
* for 12-month period ending 03 December 2020

Additional Remarks

GCO AVBL ON FREQ 135.075 THRU BAD APCH CTL AND FLT SVCS.
PARACHUTE ACTIVITY INVOF ARPT.
FOR CD IF UNA VIA GCO CTC FORT WORTH ARTCC AT 817-858-7584.

Instrument Procedures

NOTE: All procedures below are presented as PDF files. If you need a reader for these files, you should download the free Adobe Reader.

NOT FOR NAVIGATION. Please procure official charts for flight.
FAA instrument procedures published for use from 01 December 2022 at 0901Z to 29 December 2022 at 0900z.

 
IAPs - Instrument Approach Procedures
RNAV (GPS) RWY 09   download (200KB)
RNAV (GPS) RWY 27   download (182KB)
VOR/DME-A   download (163KB)
NOTE: Special Take-Off Minimums/Departure Procedures apply   download (116KB)

Other nearby airports with instrument procedures:

KATA - Hall-Miller Municipal Airport (17 nm NW)
KDTN - Shreveport Downtown Airport (23 nm SE)
KASL - Harrison County Airport (25 nm SW)
KSHV - Shreveport Regional Airport (27 nm S)
KBAD - Barksdale Air Force Base (28 nm SE)
 
Loc | Ops | Rwys | IFR | FBO | Links
Com | Nav | Svcs | Stats | Notes
Area around 3F4 (Vivian Airport)
 
Road maps at: MapQuest Bing Google
 
Aerial photo
WARNING: Photo may not be current or correct
Aerial photo of 3F4 (Vivian Airport)
Photo by Carl Hennigan
Taken in May 2007

Do you have a better or more recent aerial photo of Vivian Airport that you would like to share? If so, please send us your photo.

 
Sectional chart

 
Airport distance calculator
Flying to Vivian Airport? Find the distance to fly.

From to 3F4

Sunrise and sunset
Times for 08-Dec-2022
 Local
(UTC-6)
 Zulu
(UTC)
Morning civil twilight06:4012:40
Sunrise07:0713:07
Sunset17:0923:09
Evening civil twilight17:3623:36

Current date and time
Zulu (UTC)  08-Dec-2022 21:08:52
Local (UTC-6)  08-Dec-2022 15:08:52
 
METAR
KATA 
17nm NW 
082055Z AUTO 24005KT 10SM SCT043 BKN060 25/20 A3007 RMK AO2 SLP083 T02460203 $
KDTN 
23nm SE 
082053Z 23008KT 10SM FEW032 OVC080 26/18 A3010 RMK AO2 SLP189 T02560183 56017
KASL 
25nm SW 
082055Z AUTO 23007KT 10SM CLR 26/19 A3007 RMK AO2 T02560186 $
KSHV 
26nm S 
082056Z 21004KT 10SM FEW050 OVC080 26/19 A3009 RMK SLPNO
KBAD 
28nm SE 
082055Z AUTO 22008KT 10SM BKN060 BKN080 25/18 A3008 RMK AO2 SLP189 60000 T02530177 56018
TAF
KSHV 
26nm S 
081741Z 0818/0918 20012G20KT P6SM SCT025 BKN080 TEMPO 0818/0819 OVC025 FM082000 21010KT P6SM BKN040 FM090100 18005KT P6SM BKN070 FM091000 21005KT P6SM OVC015 FM091600 23006KT P6SM BKN025
KBAD 
28nm SE 
082000Z 0820/1002 21015G25KT 9999 SCT040 BKN080 QNH3004INS BECMG 0823/0824 20006KT 9999 SCT080 QNH3005INS BECMG 0909/0910 24006KT 9999 OVC015 QNH3006INS BECMG 0912/0913 26006KT 9999 VCSH OVC009 QNH3009INS BECMG 0915/0916 24012KT 9999 NSW OVC015 QNH3010INS BECMG 0917/0918 32006KT 9999 BKN030 QNH3002INS TX27/0821Z TN17/0912Z
NOTAMs
Click for the latest NOTAMs
NOTAMs are issued by the DoD/FAA and will open in a separate window not controlled by AirNav.

 

 
 

FBO, Fuel Providers, and Aircraft Ground Support

  
 Business Name 
 
 Contact 
 
 Services / Description 
 
Fuel Prices
 
Comments
  
 Town of Vivian
318-375-3856
[web site]
Airport management, Aviation fuel, Aircraft parking (ramp or tiedown), Hangars, Hangar leasing / sales, Passenger terminal and lounge, Aircraft maintenance, Restrooms

More info about Town of Vivian
Titan
100LL
SS $5.35 
GUARANTEED
 
   write
SS=Self service
Update Fuel Prices
 

Would you like to see your business listed on this page?

 If your business provides an interesting product or service to pilots, flight crews, aircraft, or users of the Vivian Airport, you should consider listing it here.  To start the listing process, click on the button below
 
Add a business
 

Other Pages about Vivian Airport

townofvivian.us/airport
 
Update a link
 
Copyright © AirNav, LLC. All rights reserved. Privacy Policy  Contact